sensor_id;sensor_type;location;lat;lon;timestamp;pressure;altitude;pressure_sealevel;temperature;humidity
20424;BME280;10371;49.042;8.002;2024-03-06T00:00:20;99997.91;;;5.80;100.00
20424;BME280;10371;49.042;8.002;2024-03-06T00:01:21;99998.72;;;5.81;100.00
20424;BME280;10371;49.042;8.002;2024-03-06T00:02:21;100000.28;;;5.83;100.00
20424;BME280;10371;49.042;8.002;2024-03-06T00:03:21;99997.91;;;5.80;100.00
20424;BME280;10371;49.042;8.002;2024-03-06T00:04:21;100006.28;;;5.84;100.00
20424;BME280;10371;49.042;8.002;2024-03-06T00:05:22;99999.34;;;5.85;100.00
20424;BME280;10371;49.042;8.002;2024-03-06T00:06:22;100006.22;;;5.86;100.00
20424;BME280;10371;49.042;8.002;2024-03-06T00:07:22;100006.28;;;5.84;100.00
20424;BME280;10371;49.042;8.002;2024-03-06T00:08:23;100003.63;;;5.86;100.00
20424;BME280;10371;49.042;8.002;2024-03-06T00:09:23;100005.22;;;5.88;100.00
20424;BME280;10371;49.042;8.002;2024-03-06T00:10:27;100009.38;;;5.91;100.00
20424;BME280;10371;49.042;8.002;2024-03-06T00:11:27;100006.03;;;5.89;100.00
20424;BME280;10371;49.042;8.002;2024-03-06T00:12:27;100005.94;;;5.90;100.00
20424;BME280;10371;49.042;8.002;2024-03-06T00:13:27;100003.25;;;5.92;100.00
20424;BME280;10371;49.042;8.002;2024-03-06T00:14:28;100005.09;;;5.90;100.00
20424;BME280;10371;49.042;8.002;2024-03-06T00:15:28;100006.63;;;5.94;100.00
20424;BME280;10371;49.042;8.002;2024-03-06T00:16:29;100004.75;;;5.96;100.00
20424;BME280;10371;49.042;8.002;2024-03-06T00:17:29;100003.94;;;5.95;100.00
20424;BME280;10371;49.042;8.002;2024-03-06T00:18:30;100000.44;;;5.96;100.00
20424;BME280;10371;49.042;8.002;2024-03-06T00:19:30;99998.69;;;5.97;100.00
20424;BME280;10371;49.042;8.002;2024-03-06T00:20:31;100003.69;;;6.00;100.00
20424;BME280;10371;49.042;8.002;2024-03-06T00:21:31;100007.72;;;6.04;100.00
20424;BME280;10371;49.042;8.002;2024-03-06T00:22:31;100011.25;;;6.03;100.00
20424;BME280;10371;49.042;8.002;2024-03-06T00:23:32;100008.66;;;6.03;100.00
20424;BME280;10371;49.042;8.002;2024-03-06T00:24:32;100010.13;;;6.07;100.00
20424;BME280;10371;49.042;8.002;2024-03-06T00:25:32;100008.41;;;6.08;100.00
20424;BME280;10371;49.042;8.002;2024-03-06T00:26:33;100011.81;;;6.08;100.00
20424;BME280;10371;49.042;8.002;2024-03-06T00:27:33;100007.41;;;6.10;100.00
20424;BME280;10371;49.042;8.002;2024-03-06T00:28:33;100008.13;;;6.12;100.00
20424;BME280;10371;49.042;8.002;2024-03-06T00:29:33;100014.03;;;6.14;100.00
20424;BME280;10371;49.042;8.002;2024-03-06T00:30:36;100009.69;;;6.15;100.00
20424;BME280;10371;49.042;8.002;2024-03-06T00:31:37;100016.53;;;6.16;100.00
20424;BME280;10371;49.042;8.002;2024-03-06T00:32:42;100015.69;;;6.15;100.00
20424;BME280;10371;49.042;8.002;2024-03-06T00:33:42;100013.84;;;6.17;100.00
20424;BME280;10371;49.042;8.002;2024-03-06T00:34:42;100018.09;;;6.18;100.00
20424;BME280;10371;49.042;8.002;2024-03-06T00:35:43;100010.25;;;6.20;100.00
20424;BME280;10371;49.042;8.002;2024-03-06T00:36:43;100016.16;;;6.22;100.00
20424;BME280;10371;49.042;8.002;2024-03-06T00:37:43;100012.00;;;6.19;100.00
20424;BME280;10371;49.042;8.002;2024-03-06T00:38:44;100013.59;;;6.22;100.00
20424;BME280;10371;49.042;8.002;2024-03-06T00:39:44;100012.38;;;6.28;100.00
20424;BME280;10371;49.042;8.002;2024-03-06T00:40:45;100015.72;;;6.30;100.00
20424;BME280;10371;49.042;8.002;2024-03-06T00:41:45;100021.72;;;6.30;100.00
20424;BME280;10371;49.042;8.002;2024-03-06T00:42:45;100017.25;;;6.32;100.00
20424;BME280;10371;49.042;8.002;2024-03-06T00:43:46;100018.94;;;6.33;100.00
20424;BME280;10371;49.042;8.002;2024-03-06T00:44:46;100013.78;;;6.33;100.00
20424;BME280;10371;49.042;8.002;2024-03-06T00:45:46;100008.59;;;6.33;100.00
20424;BME280;10371;49.042;8.002;2024-03-06T00:46:47;100018.66;;;6.38;100.00
20424;BME280;10371;49.042;8.002;2024-03-06T00:47:47;100017.56;;;6.42;100.00
20424;BME280;10371;49.042;8.002;2024-03-06T00:48:47;100009.81;;;6.42;100.00
20424;BME280;10371;49.042;8.002;2024-03-06T00:49:47;100017.63;;;6.40;100.00
20424;BME280;10371;49.042;8.002;2024-03-06T00:50:48;100015.78;;;6.42;100.00
20424;BME280;10371;49.042;8.002;2024-03-06T00:51:48;100009.53;;;6.46;100.00
20424;BME280;10371;49.042;8.002;2024-03-06T00:52:49;100011.81;;;6.51;100.00
20424;BME280;10371;49.042;8.002;2024-03-06T00:53:49;100013.59;;;6.51;100.00
20424;BME280;10371;49.042;8.002;2024-03-06T00:54:50;100017.00;;;6.51;100.00
20424;BME280;10371;49.042;8.002;2024-03-06T00:55:50;100017.94;;;6.50;100.00
20424;BME280;10371;49.042;8.002;2024-03-06T00:56:50;100017.94;;;6.50;100.00
20424;BME280;10371;49.042;8.002;2024-03-06T00:57:50;100017.94;;;6.50;100.00
20424;BME280;10371;49.042;8.002;2024-03-06T00:58:51;100016.25;;;6.49;100.00
20424;BME280;10371;49.042;8.002;2024-03-06T00:59:51;100014.69;;;6.46;100.00
20424;BME280;10371;49.042;8.002;2024-03-06T01:00:51;100012.94;;;6.47;100.00
20424;BME280;10371;49.042;8.002;2024-03-06T01:01:51;100016.44;;;6.46;100.00
20424;BME280;10371;49.042;8.002;2024-03-06T01:02:54;100017.19;;;6.48;100.00
20424;BME280;10371;49.042;8.002;2024-03-06T01:03:54;100009.41;;;6.48;100.00
20424;BME280;10371;49.042;8.002;2024-03-06T01:04:55;100012.00;;;6.48;100.00
20424;BME280;10371;49.042;8.002;2024-03-06T01:05:56;100012.84;;;6.48;100.00
20424;BME280;10371;49.042;8.002;2024-03-06T01:06:56;100011.19;;;6.47;100.00
20424;BME280;10371;49.042;8.002;2024-03-06T01:07:58;100013.84;;;6.46;100.00
20424;BME280;10371;49.042;8.002;2024-03-06T01:08:59;100013.03;;;6.45;100.00
20424;BME280;10371;49.042;8.002;2024-03-06T01:09:59;100007.97;;;6.44;100.00
20424;BME280;10371;49.042;8.002;2024-03-06T01:11:01;100011.38;;;6.44;100.00
20424;BME280;10371;49.042;8.002;2024-03-06T01:12:01;100010.53;;;6.44;100.00
20424;BME280;10371;49.042;8.002;2024-03-06T01:13:01;100021.59;;;6.46;100.00
20424;BME280;10371;49.042;8.002;2024-03-06T01:14:01;100013.84;;;6.46;100.00
20424;BME280;10371;49.042;8.002;2024-03-06T01:15:04;100019.41;;;6.40;100.00
20424;BME280;10371;49.042;8.002;2024-03-06T01:16:04;100019.56;;;6.51;100.00
20424;BME280;10371;49.042;8.002;2024-03-06T01:17:05;100016.91;;;6.53;100.00
20424;BME280;10371;49.042;8.002;2024-03-06T01:18:06;100012.66;;;6.52;100.00
20424;BME280;10371;49.042;8.002;2024-03-06T01:19:06;100025.41;;;6.40;100.00
20424;BME280;10371;49.042;8.002;2024-03-06T01:20:07;100017.09;;;6.35;100.00
20424;BME280;10371;49.042;8.002;2024-03-06T01:21:07;100025.88;;;6.33;100.00
20424;BME280;10371;49.042;8.002;2024-03-06T01:22:08;100025.31;;;6.28;100.00
20424;BME280;10371;49.042;8.002;2024-03-06T01:23:08;100022.16;;;6.22;100.00
20424;BME280;10371;49.042;8.002;2024-03-06T01:24:08;100025.13;;;6.16;100.00
20424;BME280;10371;49.042;8.002;2024-03-06T01:25:08;100020.84;;;6.15;100.00
20424;BME280;10371;49.042;8.002;2024-03-06T01:26:09;100025.63;;;6.07;100.00
20424;BME280;10371;49.042;8.002;2024-03-06T01:27:10;100023.16;;;6.06;100.00
20424;BME280;10371;49.042;8.002;2024-03-06T01:28:10;100017.94;;;5.91;100.00
20424;BME280;10371;49.042;8.002;2024-03-06T01:29:11;100018.63;;;5.95;100.00
20424;BME280;10371;49.042;8.002;2024-03-06T01:30:11;100021.16;;;5.80;100.00
20424;BME280;10371;49.042;8.002;2024-03-06T01:31:11;100017.56;;;5.83;100.00
20424;BME280;10371;49.042;8.002;2024-03-06T01:32:11;100025.38;;;5.81;100.00
20424;BME280;10371;49.042;8.002;2024-03-06T01:33:13;100022.31;;;5.75;100.00
20424;BME280;10371;49.042;8.002;2024-03-06T01:34:13;100016.50;;;5.71;100.00
20424;BME280;10371;49.042;8.002;2024-03-06T01:35:13;100021.81;;;5.68;100.00
20424;BME280;10371;49.042;8.002;2024-03-06T01:36:14;100014.00;;;5.70;100.00
20424;BME280;10371;49.042;8.002;2024-03-06T01:37:14;100010.59;;;5.69;100.00
20424;BME280;10371;49.042;8.002;2024-03-06T01:38:14;100018.16;;;5.72;100.00
20424;BME280;10371;49.042;8.002;2024-03-06T01:39:15;100013.28;;;5.82;100.00
20424;BME280;10371;49.042;8.002;2024-03-06T01:40:16;100015.88;;;5.82;100.00
20424;BME280;10371;49.042;8.002;2024-03-06T01:41:17;100016.06;;;5.79;100.00
20424;BME280;10371;49.042;8.002;2024-03-06T01:42:17;100014.75;;;5.72;100.00
20424;BME280;10371;49.042;8.002;2024-03-06T01:43:19;100015.59;;;5.72;100.00
20424;BME280;10371;49.042;8.002;2024-03-06T01:44:20;100012.81;;;5.75;100.00
20424;BME280;10371;49.042;8.002;2024-03-06T01:45:20;100022.59;;;5.70;100.00
20424;BME280;10371;49.042;8.002;2024-03-06T01:46:21;100023.41;;;5.71;100.00
20424;BME280;10371;49.042;8.002;2024-03-06T01:47:21;100020.94;;;5.69;100.00
20424;BME280;10371;49.042;8.002;2024-03-06T01:48:24;100013.94;;;5.71;100.00
20424;BME280;10371;49.042;8.002;2024-03-06T01:49:26;100016.34;;;5.74;100.00
20424;BME280;10371;49.042;8.002;2024-03-06T01:50:27;100016.34;;;5.74;100.00
20424;BME280;10371;49.042;8.002;2024-03-06T01:51:27;100008.41;;;5.77;100.00
20424;BME280;10371;49.042;8.002;2024-03-06T01:52:28;100010.06;;;5.78;100.00
20424;BME280;10371;49.042;8.002;2024-03-06T01:53:29;100010.88;;;5.79;100.00
20424;BME280;10371;49.042;8.002;2024-03-06T01:54:32;100009.22;;;5.78;100.00
20424;BME280;10371;49.042;8.002;2024-03-06T01:55:32;100017.22;;;5.73;100.00
20424;BME280;10371;49.042;8.002;2024-03-06T01:56:34;100026.00;;;5.71;100.00
20424;BME280;10371;49.042;8.002;2024-03-06T01:57:35;100017.34;;;5.72;100.00
20424;BME280;10371;49.042;8.002;2024-03-06T01:58:38;100026.66;;;5.74;100.00
20424;BME280;10371;49.042;8.002;2024-03-06T01:59:40;100024.09;;;5.74;100.00
20424;BME280;10371;49.042;8.002;2024-03-06T02:00:41;100023.34;;;5.72;100.00
20424;BME280;10371;49.042;8.002;2024-03-06T02:01:41;100018.81;;;5.76;100.00
20424;BME280;10371;49.042;8.002;2024-03-06T02:02:42;100024.81;;;5.76;100.00
20424;BME280;10371;49.042;8.002;2024-03-06T02:05:40;100033.66;;;5.72;100.00
20424;BME280;10371;49.042;8.002;2024-03-06T02:06:41;100021.69;;;5.71;100.00
20424;BME280;10371;49.042;8.002;2024-03-06T02:07:42;100029.50;;;5.70;100.00
20424;BME280;10371;49.042;8.002;2024-03-06T02:08:43;100034.03;;;5.66;100.00
20424;BME280;10371;49.042;8.002;2024-03-06T02:09:43;100029.75;;;5.65;100.00
20424;BME280;10371;49.042;8.002;2024-03-06T02:10:44;100029.03;;;5.63;100.00
20424;BME280;10371;49.042;8.002;2024-03-06T02:11:45;100028.34;;;5.59;100.00
20424;BME280;10371;49.042;8.002;2024-03-06T02:12:45;100035.09;;;5.62;100.00
20424;BME280;10371;49.042;8.002;2024-03-06T02:13:45;100035.66;;;5.67;100.00
20424;BME280;10371;49.042;8.002;2024-03-06T02:14:46;100027.00;;;5.68;100.00
20424;BME280;10371;49.042;8.002;2024-03-06T02:15:46;100037.31;;;5.68;100.00
20424;BME280;10371;49.042;8.002;2024-03-06T02:16:46;100035.78;;;5.66;100.00
20424;BME280;10371;49.042;8.002;2024-03-06T02:17:47;100037.50;;;5.65;100.00
20424;BME280;10371;49.042;8.002;2024-03-06T02:18:54;100036.03;;;5.61;100.00
20424;BME280;10371;49.042;8.002;2024-03-06T02:19:55;100038.84;;;5.56;100.00
20424;BME280;10371;49.042;8.002;2024-03-06T02:20:55;100031.63;;;5.63;100.00
20424;BME280;10371;49.042;8.002;2024-03-06T02:21:56;100038.34;;;5.66;100.00
20424;BME280;10371;49.042;8.002;2024-03-06T02:22:56;100038.06;;;5.70;100.00
20424;BME280;10371;49.042;8.002;2024-03-06T02:23:56;100035.72;;;5.81;100.00
20424;BME280;10371;49.042;8.002;2024-03-06T02:24:56;100038.13;;;5.85;100.00
20424;BME280;10371;49.042;8.002;2024-03-06T02:25:57;100036.25;;;5.72;100.00
20424;BME280;10371;49.042;8.002;2024-03-06T02:26:57;100038.50;;;5.63;100.00
20424;BME280;10371;49.042;8.002;2024-03-06T02:27:57;100041.72;;;5.52;100.00
20424;BME280;10371;49.042;8.002;2024-03-06T02:28:59;100037.28;;;5.54;100.00
20424;BME280;10371;49.042;8.002;2024-03-06T02:30:00;100039.69;;;5.57;100.00
20424;BME280;10371;49.042;8.002;2024-03-06T02:31:00;100038.63;;;5.45;100.00
20424;BME280;10371;49.042;8.002;2024-03-06T02:32:02;100032.47;;;5.32;100.00
20424;BME280;10371;49.042;8.002;2024-03-06T02:33:05;100037.16;;;5.25;100.00
20424;BME280;10371;49.042;8.002;2024-03-06T02:34:09;100036.41;;;5.23;100.00
20424;BME280;10371;49.042;8.002;2024-03-06T02:35:09;100033.56;;;5.44;100.00
20424;BME280;10371;49.042;8.002;2024-03-06T02:36:10;100034.41;;;5.44;100.00
20424;BME280;10371;49.042;8.002;2024-03-06T02:37:11;100032.63;;;5.45;100.00
20424;BME280;10371;49.042;8.002;2024-03-06T02:38:11;100033.00;;;5.38;100.00
20424;BME280;10371;49.042;8.002;2024-03-06T02:39:12;100032.56;;;5.30;100.00
20424;BME280;10371;49.042;8.002;2024-03-06T02:40:12;100032.09;;;5.24;100.00
20424;BME280;10371;49.042;8.002;2024-03-06T02:41:13;100039.91;;;5.22;100.00
20424;BME280;10371;49.042;8.002;2024-03-06T02:42:15;100026.19;;;5.22;100.00
20424;BME280;10371;49.042;8.002;2024-03-06T02:43:17;100033.81;;;5.39;100.00
20424;BME280;10371;49.042;8.002;2024-03-06T02:44:17;100037.31;;;5.38;100.00
20424;BME280;10371;49.042;8.002;2024-03-06T02:45:17;100038.91;;;5.41;100.00
20424;BME280;10371;49.042;8.002;2024-03-06T02:46:17;100037.56;;;5.33;100.00
20424;BME280;10371;49.042;8.002;2024-03-06T02:47:18;100036.22;;;5.26;100.00
20424;BME280;10371;49.042;8.002;2024-03-06T02:48:18;100028.50;;;5.26;100.00
20424;BME280;10371;49.042;8.002;2024-03-06T02:49:18;100029.59;;;5.22;100.00
20424;BME280;10371;49.042;8.002;2024-03-06T02:50:19;100030.34;;;5.24;100.00
20424;BME280;10371;49.042;8.002;2024-03-06T02:51:21;100034.81;;;5.21;100.00
20424;BME280;10371;49.042;8.002;2024-03-06T02:52:22;100039.84;;;5.24;100.00
20424;BME280;10371;49.042;8.002;2024-03-06T02:53:22;100025.19;;;5.24;100.00
20424;BME280;10371;49.042;8.002;2024-03-06T02:54:23;100034.75;;;5.22;100.00
20424;BME280;10371;49.042;8.002;2024-03-06T02:55:25;100027.00;;;5.22;100.00
20424;BME280;10371;49.042;8.002;2024-03-06T02:56:25;100036.41;;;5.23;100.00
20424;BME280;10371;49.042;8.002;2024-03-06T02:57:28;100032.16;;;5.22;100.00
20424;BME280;10371;49.042;8.002;2024-03-06T02:58:28;100038.09;;;5.24;100.00
20424;BME280;10371;49.042;8.002;2024-03-06T02:59:31;100035.34;;;5.27;100.00
20424;BME280;10371;49.042;8.002;2024-03-06T03:00:31;100038.81;;;5.26;100.00
20424;BME280;10371;49.042;8.002;2024-03-06T03:01:32;100041.41;;;5.26;100.00
20424;BME280;10371;49.042;8.002;2024-03-06T03:02:32;100032.09;;;5.24;100.00
20424;BME280;10371;49.042;8.002;2024-03-06T03:03:33;100032.75;;;5.27;100.00
20424;BME280;10371;49.042;8.002;2024-03-06T03:04:33;100034.41;;;5.28;100.00
20424;BME280;10371;49.042;8.002;2024-03-06T03:05:33;100039.56;;;5.28;100.00
20424;BME280;10371;49.042;8.002;2024-03-06T03:06:34;100036.75;;;5.33;100.00
20424;BME280;10371;49.042;8.002;2024-03-06T03:07:34;100036.75;;;5.33;100.00
20424;BME280;10371;49.042;8.002;2024-03-06T03:08:36;100035.06;;;5.32;100.00
20424;BME280;10371;49.042;8.002;2024-03-06T03:09:37;100032.41;;;5.33;100.00
20424;BME280;10371;49.042;8.002;2024-03-06T03:10:38;100030.75;;;5.32;100.00
20424;BME280;10371;49.042;8.002;2024-03-06T03:11:38;100035.06;;;5.32;100.00
20424;BME280;10371;49.042;8.002;2024-03-06T03:12:38;100030.06;;;5.29;100.00
20424;BME280;10371;49.042;8.002;2024-03-06T03:13:39;100036.09;;;5.29;100.00
20424;BME280;10371;49.042;8.002;2024-03-06T03:14:40;100032.66;;;5.29;100.00
20424;BME280;10371;49.042;8.002;2024-03-06T03:15:41;100037.91;;;5.27;100.00
20424;BME280;10371;49.042;8.002;2024-03-06T03:16:41;100040.50;;;5.27;100.00
20424;BME280;10371;49.042;8.002;2024-03-06T03:17:42;100043.97;;;5.26;100.00
20424;BME280;10371;49.042;8.002;2024-03-06T03:18:42;100042.31;;;5.25;100.00
20424;BME280;10371;49.042;8.002;2024-03-06T03:19:42;100039.75;;;5.25;100.00
20424;BME280;10371;49.042;8.002;2024-03-06T03:20:43;100041.41;;;5.26;100.00
20424;BME280;10371;49.042;8.002;2024-03-06T03:21:44;100034.56;;;5.25;100.00
20424;BME280;10371;49.042;8.002;2024-03-06T03:22:44;100036.16;;;5.28;100.00
20424;BME280;10371;49.042;8.002;2024-03-06T03:23:45;100030.16;;;5.27;100.00
20424;BME280;10371;49.042;8.002;2024-03-06T03:24:45;100032.66;;;5.29;100.00
20424;BME280;10371;49.042;8.002;2024-03-06T03:25:45;100038.66;;;5.29;100.00
20424;BME280;10371;49.042;8.002;2024-03-06T03:26:46;100036.09;;;5.29;100.00
20424;BME280;10371;49.042;8.002;2024-03-06T03:27:46;100036.09;;;5.29;100.00
20424;BME280;10371;49.042;8.002;2024-03-06T03:28:47;100031.06;;;5.26;100.00
20424;BME280;10371;49.042;8.002;2024-03-06T03:29:47;100039.75;;;5.25;100.00
20424;BME280;10371;49.042;8.002;2024-03-06T03:30:47;100036.41;;;5.23;100.00
20424;BME280;10371;49.042;8.002;2024-03-06T03:31:48;100035.34;;;5.27;100.00
20424;BME280;10371;49.042;8.002;2024-03-06T03:32:48;100037.09;;;5.27;100.00
20424;BME280;10371;49.042;8.002;2024-03-06T03:33:48;100037.09;;;5.27;100.00
20424;BME280;10371;49.042;8.002;2024-03-06T03:34:49;100037.16;;;5.25;100.00
20424;BME280;10371;49.042;8.002;2024-03-06T03:35:49;100043.06;;;5.27;100.00
20424;BME280;10371;49.042;8.002;2024-03-06T03:36:49;100037.09;;;5.27;100.00
20424;BME280;10371;49.042;8.002;2024-03-06T03:37:52;100036.16;;;5.28;100.00
20424;BME280;10371;49.042;8.002;2024-03-06T03:38:53;100025.91;;;5.26;100.00
20424;BME280;10371;49.042;8.002;2024-03-06T03:39:54;100029.25;;;5.28;100.00
20424;BME280;10371;49.042;8.002;2024-03-06T03:40:54;100030.06;;;5.29;100.00
20424;BME280;10371;49.042;8.002;2024-03-06T03:41:54;100028.41;;;5.28;100.00
20424;BME280;10371;49.042;8.002;2024-03-06T03:42:55;100025.84;;;5.28;100.00
20424;BME280;10371;49.042;8.002;2024-03-06T03:43:55;100031.06;;;5.26;100.00
20424;BME280;10371;49.042;8.002;2024-03-06T03:44:55;100028.41;;;5.28;100.00
20424;BME280;10371;49.042;8.002;2024-03-06T03:45:55;100029.25;;;5.28;100.00
20424;BME280;10371;49.042;8.002;2024-03-06T03:46:56;100035.22;;;5.29;100.00
20424;BME280;10371;49.042;8.002;2024-03-06T03:47:56;100040.50;;;5.27;100.00
20424;BME280;10371;49.042;8.002;2024-03-06T03:48:56;100043.06;;;5.27;100.00
20424;BME280;10371;49.042;8.002;2024-03-06T03:49:57;100036.97;;;5.28;100.00
20424;BME280;10371;49.042;8.002;2024-03-06T03:50:57;100037.09;;;5.27;100.00
20424;BME280;10371;49.042;8.002;2024-03-06T03:51:58;100032.09;;;5.24;100.00
20424;BME280;10371;49.042;8.002;2024-03-06T03:52:58;100045.84;;;5.24;100.00
20424;BME280;10371;49.042;8.002;2024-03-06T03:54:01;100033.94;;;5.22;100.00
20424;BME280;10371;49.042;8.002;2024-03-06T03:55:01;100036.75;;;5.33;100.00
20424;BME280;10371;49.042;8.002;2024-03-06T03:56:03;100038.16;;;5.38;100.00
20424;BME280;10371;49.042;8.002;2024-03-06T03:57:04;100045.06;;;5.22;100.00
20424;BME280;10371;49.042;8.002;2024-03-06T03:58:04;100035.44;;;5.10;100.00
20424;BME280;10371;49.042;8.002;2024-03-06T03:59:06;100048.66;;;5.20;100.00
20424;BME280;10371;49.042;8.002;2024-03-06T04:00:07;100041.44;;;5.10;100.00
20424;BME280;10371;49.042;8.002;2024-03-06T04:01:11;100042.75;;;5.02;100.00
20424;BME280;10371;49.042;8.002;2024-03-06T04:02:11;100041.75;;;5.04;100.00
20424;BME280;10371;49.042;8.002;2024-03-06T04:03:11;100044.66;;;4.98;100.00
20424;BME280;10371;49.042;8.002;2024-03-06T04:04:12;100043.41;;;4.89;100.00
20424;BME280;10371;49.042;8.002;2024-03-06T04:05:12;100045.22;;;4.87;100.00
20424;BME280;10371;49.042;8.002;2024-03-06T04:06:13;100046.25;;;4.85;100.00
20424;BME280;10371;49.042;8.002;2024-03-06T04:07:13;100043.06;;;4.80;100.00
20424;BME280;10371;49.042;8.002;2024-03-06T04:08:16;100043.91;;;4.80;100.00
20424;BME280;10371;49.042;8.002;2024-03-06T04:09:16;100044.97;;;4.76;100.00
20424;BME280;10371;49.042;8.002;2024-03-06T04:10:16;100048.78;;;4.69;100.00
20424;BME280;10371;49.042;8.002;2024-03-06T04:11:17;100047.09;;;4.68;100.00
20424;BME280;10371;49.042;8.002;2024-03-06T04:12:17;100050.00;;;4.62;100.00
20424;BME280;10371;49.042;8.002;2024-03-06T04:13:18;100048.38;;;4.61;100.00
20424;BME280;10371;49.042;8.002;2024-03-06T04:14:20;100055.50;;;4.56;100.00
20424;BME280;10371;49.042;8.002;2024-03-06T04:15:20;100057.31;;;4.54;100.00
20424;BME280;10371;49.042;8.002;2024-03-06T04:16:21;100055.66;;;4.53;100.00
20424;BME280;10371;49.042;8.002;2024-03-06T04:17:22;100059.16;;;4.52;100.00
20424;BME280;10371;49.042;8.002;2024-03-06T04:18:22;100055.81;;;4.50;100.00
20424;BME280;10371;49.042;8.002;2024-03-06T04:19:22;100052.91;;;4.56;100.00
20424;BME280;10371;49.042;8.002;2024-03-06T04:20:22;100056.31;;;4.56;100.00
20424;BME280;10371;49.042;8.002;2024-03-06T04:21:23;100060.00;;;4.52;100.00
20424;BME280;10371;49.042;8.002;2024-03-06T04:22:23;100063.63;;;4.48;100.00
20424;BME280;10371;49.042;8.002;2024-03-06T04:23:23;100057.03;;;4.42;100.00
20424;BME280;10371;49.042;8.002;2024-03-06T04:24:24;100065.69;;;4.41;100.00
20424;BME280;10371;49.042;8.002;2024-03-06T04:25:24;100060.53;;;4.41;100.00
20424;BME280;10371;49.042;8.002;2024-03-06T04:26:24;100070.75;;;4.43;100.00
20424;BME280;10371;49.042;8.002;2024-03-06T04:27:25;100066.53;;;4.42;100.00
20424;BME280;10371;49.042;8.002;2024-03-06T04:28:26;100068.94;;;4.45;100.00
20424;BME280;10371;49.042;8.002;2024-03-06T04:29:26;100072.28;;;4.47;100.00
20424;BME280;10371;49.042;8.002;2024-03-06T04:30:26;100077.22;;;4.52;100.00
20424;BME280;10371;49.042;8.002;2024-03-06T04:31:27;100075.53;;;4.51;100.00
20424;BME280;10371;49.042;8.002;2024-03-06T04:32:27;100071.50;;;4.45;100.00
20424;BME280;10371;49.042;8.002;2024-03-06T04:33:27;100076.59;;;4.46;100.00
20424;BME280;10371;49.042;8.002;2024-03-06T04:34:27;100078.25;;;4.47;100.00
20424;BME280;10371;49.042;8.002;2024-03-06T04:35:28;100076.59;;;4.46;100.00
20424;BME280;10371;49.042;8.002;2024-03-06T04:36:28;100086.00;;;4.47;100.00
20424;BME280;10371;49.042;8.002;2024-03-06T04:37:28;100083.56;;;4.44;100.00
20424;BME280;10371;49.042;8.002;2024-03-06T04:38:29;100088.66;;;4.46;100.00
20424;BME280;10371;49.042;8.002;2024-03-06T04:39:29;100088.56;;;4.47;100.00
20424;BME280;10371;49.042;8.002;2024-03-06T04:40:30;100087.75;;;4.47;100.00
20424;BME280;10371;49.042;8.002;2024-03-06T04:41:30;100093.66;;;4.49;100.00
20424;BME280;10371;49.042;8.002;2024-03-06T04:42:30;100098.72;;;4.51;100.00
20424;BME280;10371;49.042;8.002;2024-03-06T04:43:30;100094.31;;;4.53;100.00
20424;BME280;10371;49.042;8.002;2024-03-06T04:44:33;100096.38;;;4.63;100.00
20424;BME280;10371;49.042;8.002;2024-03-06T04:45:34;100097.25;;;4.62;100.00
20424;BME280;10371;49.042;8.002;2024-03-06T04:46:34;100098.41;;;4.57;100.00
20424;BME280;10371;49.042;8.002;2024-03-06T04:47:34;100097.13;;;4.48;100.00
20424;BME280;10371;49.042;8.002;2024-03-06T04:48:35;100097.44;;;4.42;100.00
20424;BME280;10371;49.042;8.002;2024-03-06T04:49:35;100095.69;;;4.42;100.00
20424;BME280;10371;49.042;8.002;2024-03-06T04:50:35;100101.00;;;4.39;100.00
20424;BME280;10371;49.042;8.002;2024-03-06T04:51:36;100103.69;;;4.38;100.00
20424;BME280;10371;49.042;8.002;2024-03-06T04:52:39;100111.56;;;4.35;100.00
20424;BME280;10371;49.042;8.002;2024-03-06T04:53:40;100103.69;;;4.38;100.00
20424;BME280;10371;49.042;8.002;2024-03-06T04:54:42;100114.66;;;4.41;100.00
20424;BME280;10371;49.042;8.002;2024-03-06T04:55:42;100119.06;;;4.39;100.00
20424;BME280;10371;49.042;8.002;2024-03-06T04:56:42;100121.63;;;4.39;100.00
20424;BME280;10371;49.042;8.002;2024-03-06T04:57:43;100111.00;;;4.45;100.00
20424;BME280;10371;49.042;8.002;2024-03-06T04:58:44;100121.94;;;4.51;100.00
20424;BME280;10371;49.042;8.002;2024-03-06T04:59:44;100119.28;;;4.52;100.00
20424;BME280;10371;49.042;8.002;2024-03-06T05:00:44;100129.16;;;4.44;100.00
20424;BME280;10371;49.042;8.002;2024-03-06T05:01:45;100122.47;;;4.40;100.00
20424;BME280;10371;49.042;8.002;2024-03-06T05:02:45;100121.78;;;4.36;100.00
20424;BME280;10371;49.042;8.002;2024-03-06T05:03:45;100120.28;;;4.32;100.00
20424;BME280;10371;49.042;8.002;2024-03-06T05:04:46;100126.44;;;4.30;100.00
20424;BME280;10371;49.042;8.002;2024-03-06T05:05:46;100119.13;;;4.20;100.00
20424;BME280;10371;49.042;8.002;2024-03-06T05:06:47;100124.22;;;4.22;100.00
20424;BME280;10371;49.042;8.002;2024-03-06T05:07:47;100122.41;;;4.24;100.00
20424;BME280;10371;49.042;8.002;2024-03-06T05:08:47;100123.16;;;4.26;100.00
20424;BME280;10371;49.042;8.002;2024-03-06T05:09:47;100128.25;;;4.28;100.00
20424;BME280;10371;49.042;8.002;2024-03-06T05:10:48;100122.78;;;4.34;100.00
20424;BME280;10371;49.042;8.002;2024-03-06T05:11:48;100120.97;;;4.36;100.00
20424;BME280;10371;49.042;8.002;2024-03-06T05:12:50;100126.78;;;4.39;100.00
20424;BME280;10371;49.042;8.002;2024-03-06T05:13:50;100128.31;;;4.43;100.00
20424;BME280;10371;49.042;8.002;2024-03-06T05:14:52;100125.97;;;4.39;100.00
20424;BME280;10371;49.042;8.002;2024-03-06T05:15:52;100139.06;;;4.34;100.00
20424;BME280;10371;49.042;8.002;2024-03-06T05:16:54;100126.03;;;4.37;100.00
20424;BME280;10371;49.042;8.002;2024-03-06T05:17:54;100136.44;;;4.36;100.00
20424;BME280;10371;49.042;8.002;2024-03-06T05:18:56;100136.44;;;4.36;100.00